Time;durP1;ratioP1;P1;durP2;ratioP2;P2;SDS_P1;SDS_P2;PMS_P1;PMS_P2;Temp;Humidity;BMP_temperature;BMP_pressure;BME280_temperature;BME280_humidity;BME280_pressure;Samples;Min_cycle;Max_cycle;Signal;HPM_P1;HPM_P2
2021/06/10 00:00:07;;;;;;;19.73;18.10;;;;;;;;;;5044377;28;20454;-77
2021/06/10 00:02:35;;;;;;;19.83;17.93;;;;;;;;;;5053791;28;20478;-77
2021/06/10 00:05:01;;;;;;;19.47;17.73;;;;;;;;;;5053093;28;20448;-79
2021/06/10 00:07:28;;;;;;;19.03;17.43;;;;;;;;;;5050988;28;20556;-77
2021/06/10 00:09:54;;;;;;;18.43;16.90;;;;;;;;;;5059542;28;21017;-77
2021/06/10 00:12:21;;;;;;;19.80;17.90;;;;;;;;;;5051182;28;20462;-77
2021/06/10 00:14:48;;;;;;;20.20;18.27;;;;;;;;;;5055294;28;20451;-78
2021/06/10 00:17:15;;;;;;;18.90;17.20;;;;;;;;;;5054723;28;20453;-80
2021/06/10 00:19:43;;;;;;;22.67;18.70;;;;;;;;;;5053837;28;20444;-78
2021/06/10 00:22:09;;;;;;;20.17;18.07;;;;;;;;;;5051602;28;20952;-79
2021/06/10 00:24:36;;;;;;;20.00;18.00;;;;;;;;;;5046804;28;20557;-78
2021/06/10 00:27:03;;;;;;;21.43;19.33;;;;;;;;;;5048370;28;20468;-78
2021/06/10 00:29:29;;;;;;;19.93;18.33;;;;;;;;;;5049421;28;20465;-78
2021/06/10 00:31:56;;;;;;;20.20;18.43;;;;;;;;;;5048614;28;20533;-78
2021/06/10 00:34:23;;;;;;;20.03;18.23;;;;;;;;;;5051867;28;20540;-79
2021/06/10 00:36:51;;;;;;;20.80;19.00;;;;;;;;;;5050026;28;20526;-78
2021/06/10 00:39:17;;;;;;;23.10;21.00;;;;;;;;;;5052444;28;20485;-79
2021/06/10 00:41:44;;;;;;;22.83;20.83;;;;;;;;;;5056171;28;20476;-78
2021/06/10 00:44:11;;;;;;;21.57;19.67;;;;;;;;;;5065896;28;20509;-80
2021/06/10 00:46:38;;;;;;;21.13;19.20;;;;;;;;;;5050485;28;20551;-78
2021/06/10 00:49:04;;;;;;;22.07;20.03;;;;;;;;;;5054858;28;20505;-78
2021/06/10 00:51:31;;;;;;;22.40;20.40;;;;;;;;;;5055452;28;20470;-80
2021/06/10 00:54:00;;;;;;;22.77;20.67;;;;;;;;;;5052461;28;20455;-78
2021/06/10 00:56:27;;;;;;;20.63;18.80;;;;;;;;;;5055919;28;20440;-79
2021/06/10 00:58:54;;;;;;;21.50;19.70;;;;;;;;;;5051435;28;20458;-78
2021/06/10 01:01:20;;;;;;;21.50;19.50;;;;;;;;;;5059200;28;20472;-78
2021/06/10 01:03:47;;;;;;;21.47;19.67;;;;;;;;;;5062228;28;21018;-79
2021/06/10 01:06:17;;;;;;;23.83;21.47;;;;;;;;;;5058750;28;20534;-78
2021/06/10 01:08:48;;;;;;;21.40;19.40;;;;;;;;;;5054644;28;20452;-78
2021/06/10 01:11:20;;;;;;;19.63;18.03;;;;;;;;;;5051254;28;20544;-77
2021/06/10 01:13:53;;;;;;;22.10;20.17;;;;;;;;;;5056847;28;20447;-78
2021/06/10 01:16:23;;;;;;;21.67;19.87;;;;;;;;;;5059300;28;20444;-78
2021/06/10 01:18:49;;;;;;;22.47;20.43;;;;;;;;;;5049981;28;20555;-77
2021/06/10 01:21:17;;;;;;;23.60;21.20;;;;;;;;;;5057768;28;20491;-78
2021/06/10 01:23:53;;;;;;;22.77;20.67;;;;;;;;;;5052255;28;20566;-79
2021/06/10 01:26:27;;;;;;;23.17;21.17;;;;;;;;;;5059224;28;20524;-78
2021/06/10 01:28:56;;;;;;;22.70;20.80;;;;;;;;;;5054789;28;20453;-78
2021/06/10 01:31:23;;;;;;;23.97;21.87;;;;;;;;;;5052447;28;21038;-78
2021/06/10 01:33:52;;;;;;;23.63;21.23;;;;;;;;;;5049744;28;20538;-80
2021/06/10 01:36:20;;;;;;;21.10;19.20;;;;;;;;;;5057507;28;20501;-79
2021/06/10 01:38:48;;;;;;;21.13;19.30;;;;;;;;;;5040434;28;20866;-78
2021/06/10 01:41:15;;;;;;;22.70;20.07;;;;;;;;;;5052266;28;20452;-78
2021/06/10 01:43:42;;;;;;;22.37;20.33;;;;;;;;;;5054395;28;20831;-79
2021/06/10 01:46:11;;;;;;;24.00;22.00;;;;;;;;;;5051160;28;20453;-79
2021/06/10 01:48:39;;;;;;;21.63;19.70;;;;;;;;;;5059338;28;20531;-78
2021/06/10 01:51:06;;;;;;;21.30;19.40;;;;;;;;;;5053452;28;21158;-80
2021/06/10 01:53:33;;;;;;;21.87;19.83;;;;;;;;;;5054633;28;20442;-79
2021/06/10 01:56:01;;;;;;;21.23;19.23;;;;;;;;;;5049230;28;20552;-79
2021/06/10 01:58:27;;;;;;;21.77;19.77;;;;;;;;;;5054497;28;20977;-82
2021/06/10 02:00:54;;;;;;;22.33;20.33;;;;;;;;;;5054430;28;20535;-79
2021/06/10 02:03:23;;;;;;;22.57;20.40;;;;;;;;;;5048968;28;20468;-78
2021/06/10 02:05:50;;;;;;;22.87;20.77;;;;;;;;;;5054717;28;20451;-79
2021/06/10 02:08:17;;;;;;;22.87;20.67;;;;;;;;;;5056555;28;20805;-79
2021/06/10 02:10:45;;;;;;;23.40;21.30;;;;;;;;;;5049235;28;20564;-79
2021/06/10 02:13:12;;;;;;;23.70;21.57;;;;;;;;;;5054749;28;20529;-79
2021/06/10 02:15:39;;;;;;;22.83;20.47;;;;;;;;;;5047980;28;20474;-79
2021/06/10 02:18:06;;;;;;;24.40;22.20;;;;;;;;;;5054050;28;20487;-79
2021/06/10 02:20:34;;;;;;;25.87;23.27;;;;;;;;;;5058904;28;20538;-79
2021/06/10 02:23:00;;;;;;;23.43;21.30;;;;;;;;;;5058957;28;20517;-79
2021/06/10 02:25:27;;;;;;;24.13;21.97;;;;;;;;;;5059214;28;20463;-82
2021/06/10 02:27:53;;;;;;;25.33;22.83;;;;;;;;;;5057308;28;20496;-78
2021/06/10 02:30:20;;;;;;;24.90;22.47;;;;;;;;;;5056814;28;20972;-79
2021/06/10 02:32:47;;;;;;;24.53;22.13;;;;;;;;;;5054343;28;20459;-80
2021/06/10 02:35:14;;;;;;;24.47;22.27;;;;;;;;;;5059464;28;20822;-79
2021/06/10 02:37:44;;;;;;;23.50;21.33;;;;;;;;;;5053565;28;20534;-79
2021/06/10 02:40:12;;;;;;;24.60;22.30;;;;;;;;;;5053518;28;20917;-79
2021/06/10 02:42:39;;;;;;;24.20;22.10;;;;;;;;;;5057053;28;20659;-78
2021/06/10 02:45:07;;;;;;;24.23;21.93;;;;;;;;;;5059544;28;20462;-79
2021/06/10 02:47:34;;;;;;;23.77;21.63;;;;;;;;;;5049425;28;20459;-79
2021/06/10 02:50:01;;;;;;;24.47;22.13;;;;;;;;;;5053392;28;20567;-79
2021/06/10 02:52:29;;;;;;;24.30;21.73;;;;;;;;;;5052428;28;20460;-80
2021/06/10 02:54:57;;;;;;;23.77;21.57;;;;;;;;;;5057362;28;20698;-79
2021/06/10 02:57:25;;;;;;;25.10;22.63;;;;;;;;;;5053710;28;21333;-79
2021/06/10 02:59:53;;;;;;;23.03;20.90;;;;;;;;;;5054584;28;20973;-78
2021/06/10 03:02:20;;;;;;;25.23;23.13;;;;;;;;;;5056205;28;20559;-79
2021/06/10 03:04:47;;;;;;;24.67;22.50;;;;;;;;;;5054439;28;20609;-80
2021/06/10 03:07:14;;;;;;;25.70;21.73;;;;;;;;;;5055421;28;20456;-79
2021/06/10 03:09:42;;;;;;;25.07;22.77;;;;;;;;;;5053036;28;20536;-80
2021/06/10 03:12:11;;;;;;;25.33;23.00;;;;;;;;;;5056156;28;20450;-79
2021/06/10 03:14:39;;;;;;;26.90;24.17;;;;;;;;;;5049317;28;20849;-79
2021/06/10 03:17:05;;;;;;;25.53;23.20;;;;;;;;;;5056873;28;20941;-79
2021/06/10 03:19:32;;;;;;;26.60;24.10;;;;;;;;;;5053136;28;20890;-79
2021/06/10 03:21:59;;;;;;;25.50;22.97;;;;;;;;;;5056659;28;20459;-80
2021/06/10 03:24:26;;;;;;;25.93;23.63;;;;;;;;;;5051093;28;20823;-79
2021/06/10 03:26:53;;;;;;;25.07;22.90;;;;;;;;;;5053230;28;21038;-79
2021/06/10 03:29:21;;;;;;;26.13;23.87;;;;;;;;;;5054894;28;20543;-79
2021/06/10 03:31:48;;;;;;;24.20;22.13;;;;;;;;;;5055365;28;20440;-79
2021/06/10 03:34:17;;;;;;;25.37;22.90;;;;;;;;;;5052104;28;20453;-79
2021/06/10 03:36:44;;;;;;;25.97;23.37;;;;;;;;;;5050017;28;20495;-79
2021/06/10 03:39:11;;;;;;;23.87;21.57;;;;;;;;;;5058270;28;20477;-79
2021/06/10 03:41:38;;;;;;;24.00;21.73;;;;;;;;;;5060399;28;20570;-79
2021/06/10 03:44:05;;;;;;;22.50;20.40;;;;;;;;;;5056331;28;20494;-79
2021/06/10 03:46:34;;;;;;;22.73;20.73;;;;;;;;;;5056351;28;20440;-80
2021/06/10 03:49:00;;;;;;;23.77;21.70;;;;;;;;;;5053312;28;20455;-79
2021/06/10 03:51:27;;;;;;;24.23;22.03;;;;;;;;;;5052072;28;21076;-79
2021/06/10 03:53:55;;;;;;;24.00;21.40;;;;;;;;;;5050208;28;20453;-80
2021/06/10 03:56:22;;;;;;;24.00;21.90;;;;;;;;;;5053540;28;20898;-80
2021/06/10 03:58:48;;;;;;;23.47;21.53;;;;;;;;;;5050663;28;20449;-80
2021/06/10 04:01:15;;;;;;;25.57;23.07;;;;;;;;;;5052253;28;20586;-79
2021/06/10 04:03:43;;;;;;;24.23;22.20;;;;;;;;;;5052130;28;20495;-79
2021/06/10 04:06:11;;;;;;;24.47;22.27;;;;;;;;;;5056011;28;20531;-79
2021/06/10 04:08:38;;;;;;;23.03;20.90;;;;;;;;;;5046403;28;20831;-79
2021/06/10 04:11:05;;;;;;;23.80;21.40;;;;;;;;;;5056837;28;20471;-79
2021/06/10 04:13:31;;;;;;;25.40;23.00;;;;;;;;;;5065466;28;20539;-79
2021/06/10 04:15:58;;;;;;;24.33;21.97;;;;;;;;;;5055316;28;20476;-79
2021/06/10 04:18:25;;;;;;;24.17;21.80;;;;;;;;;;5051830;28;20487;-82
2021/06/10 04:20:53;;;;;;;25.80;23.27;;;;;;;;;;5052253;28;20458;-80
2021/06/10 04:23:20;;;;;;;28.00;23.97;;;;;;;;;;5055394;28;20561;-80
2021/06/10 04:25:46;;;;;;;26.07;23.23;;;;;;;;;;5055572;28;20456;-80
2021/06/10 04:28:13;;;;;;;27.37;24.40;;;;;;;;;;5059898;28;20463;-79
2021/06/10 04:30:39;;;;;;;27.37;24.57;;;;;;;;;;5059695;28;20461;-80
2021/06/10 04:33:06;;;;;;;26.80;24.10;;;;;;;;;;5052995;28;20440;-79
2021/06/10 04:35:33;;;;;;;28.33;25.53;;;;;;;;;;5054970;28;20455;-79
2021/06/10 04:38:01;;;;;;;29.03;26.03;;;;;;;;;;5058621;28;20462;-80
2021/06/10 04:40:28;;;;;;;27.43;24.70;;;;;;;;;;5062437;28;20475;-78
2021/06/10 04:42:54;;;;;;;27.50;24.80;;;;;;;;;;5066120;28;20467;-78
2021/06/10 04:45:21;;;;;;;27.43;24.60;;;;;;;;;;5057402;28;20483;-79
2021/06/10 04:47:48;;;;;;;27.33;24.27;;;;;;;;;;5060743;28;20452;-78
2021/06/10 04:50:15;;;;;;;27.47;24.77;;;;;;;;;;5053255;28;20459;-79
2021/06/10 04:52:41;;;;;;;34.97;25.13;;;;;;;;;;5053960;28;20536;-78
2021/06/10 04:55:10;;;;;;;40.67;25.50;;;;;;;;;;5051642;28;20451;-78
2021/06/10 04:57:37;;;;;;;43.07;26.17;;;;;;;;;;5048029;28;20573;-79
2021/06/10 05:00:05;;;;;;;54.37;26.50;;;;;;;;;;5056897;28;20440;-78
2021/06/10 05:02:32;;;;;;;30.70;27.20;;;;;;;;;;5054712;28;20599;-78
2021/06/10 05:04:58;;;;;;;36.73;27.67;;;;;;;;;;5055639;28;20469;-77
2021/06/10 05:07:25;;;;;;;29.83;26.40;;;;;;;;;;5048635;28;20794;-74
2021/06/10 05:09:51;;;;;;;30.57;27.00;;;;;;;;;;5051433;28;20452;-77
2021/06/10 05:12:19;;;;;;;40.10;28.17;;;;;;;;;;5054739;28;20467;-74
2021/06/10 05:14:46;;;;;;;34.57;28.27;;;;;;;;;;5052975;28;20793;-75
2021/06/10 05:17:13;;;;;;;50.40;29.30;;;;;;;;;;5036215;28;20915;-74
2021/06/10 05:19:39;;;;;;;35.03;29.53;;;;;;;;;;5052393;28;20456;-74
2021/06/10 05:22:06;;;;;;;32.10;28.40;;;;;;;;;;5052481;28;20460;-74
2021/06/10 05:24:33;;;;;;;40.83;30.90;;;;;;;;;;5054758;28;20447;-75
2021/06/10 05:26:59;;;;;;;35.47;30.30;;;;;;;;;;5052801;28;20584;-74
2021/06/10 05:29:27;;;;;;;81.53;35.20;;;;;;;;;;5048542;28;20536;-74
2021/06/10 05:31:54;;;;;;;36.40;29.80;;;;;;;;;;5047603;28;21466;-75
2021/06/10 05:34:21;;;;;;;34.80;29.10;;;;;;;;;;5055514;28;20490;-74
2021/06/10 05:36:47;;;;;;;38.43;29.60;;;;;;;;;;5056321;28;20505;-76
2021/06/10 05:39:14;;;;;;;33.07;28.20;;;;;;;;;;5045666;28;20951;-78
2021/06/10 05:41:41;;;;;;;35.70;29.17;;;;;;;;;;5048400;28;20507;-78
2021/06/10 05:44:08;;;;;;;33.20;26.30;;;;;;;;;;5043480;28;20475;-80
2021/06/10 05:46:36;;;;;;;30.33;25.43;;;;;;;;;;5044470;28;20513;-78
2021/06/10 05:49:02;;;;;;;33.17;27.47;;;;;;;;;;5043483;28;20576;-77
2021/06/10 05:51:29;;;;;;;35.60;23.93;;;;;;;;;;5051815;28;20456;-77
2021/06/10 05:53:56;;;;;;;29.97;26.73;;;;;;;;;;5044168;28;20459;-77
2021/06/10 05:56:22;;;;;;;29.80;26.20;;;;;;;;;;5055650;28;20452;-81
2021/06/10 05:58:49;;;;;;;30.83;27.37;;;;;;;;;;5044022;28;20855;-78
2021/06/10 06:01:15;;;;;;;37.53;27.80;;;;;;;;;;5051607;28;21129;-77
2021/06/10 06:03:44;;;;;;;41.13;28.63;;;;;;;;;;5045631;28;20471;-77
2021/06/10 06:06:11;;;;;;;31.63;28.23;;;;;;;;;;5050008;28;20447;-78
2021/06/10 06:08:38;;;;;;;32.60;28.13;;;;;;;;;;5049904;28;20450;-77
2021/06/10 06:11:05;;;;;;;27.87;25.10;;;;;;;;;;5046558;28;20461;-78
2021/06/10 06:13:44;;;;;;;30.07;27.07;;;;;;;;;;5043891;28;21017;-79
2021/06/10 06:16:11;;;;;;;30.50;26.00;;;;;;;;;;5043890;28;20551;-77
2021/06/10 06:18:37;;;;;;;31.30;28.20;;;;;;;;;;5051118;28;21138;-78
2021/06/10 06:21:06;;;;;;;27.83;24.87;;;;;;;;;;5047628;28;20551;-79
2021/06/10 06:23:33;;;;;;;29.97;26.83;;;;;;;;;;5057662;28;20480;-78
2021/06/10 06:26:00;;;;;;;29.60;26.53;;;;;;;;;;5053724;28;20471;-78
2021/06/10 06:28:26;;;;;;;30.57;27.30;;;;;;;;;;5051154;28;20509;-81
2021/06/10 06:30:53;;;;;;;29.00;26.10;;;;;;;;;;5051174;28;21014;-83
2021/06/10 06:33:20;;;;;;;27.90;25.03;;;;;;;;;;5053979;28;21031;-78
2021/06/10 06:35:48;;;;;;;29.03;26.00;;;;;;;;;;5051161;28;20457;-79
2021/06/10 06:38:16;;;;;;;31.87;28.90;;;;;;;;;;5052605;28;20449;-82
2021/06/10 06:40:42;;;;;;;28.50;25.70;;;;;;;;;;5046766;28;20528;-78
2021/06/10 06:43:11;;;;;;;29.67;27.00;;;;;;;;;;5053703;28;20493;-79
2021/06/10 06:45:38;;;;;;;30.17;27.40;;;;;;;;;;5055762;28;20480;-83
2021/06/10 06:48:05;;;;;;;28.43;26.03;;;;;;;;;;5050792;28;20448;-79
2021/06/10 06:50:32;;;;;;;27.60;25.03;;;;;;;;;;5054640;28;20515;-80
2021/06/10 06:52:59;;;;;;;28.60;25.90;;;;;;;;;;5042019;28;21131;-81
2021/06/10 06:55:27;;;;;;;27.60;25.10;;;;;;;;;;5049611;28;20624;-80
2021/06/10 06:57:53;;;;;;;29.57;26.60;;;;;;;;;;5053807;28;20551;-80
2021/06/10 07:00:20;;;;;;;27.93;25.53;;;;;;;;;;5054231;28;20444;-79
2021/06/10 07:02:48;;;;;;;28.07;25.53;;;;;;;;;;5055542;28;20973;-84
2021/06/10 07:05:15;;;;;;;26.00;23.70;;;;;;;;;;5060055;28;20445;-80
2021/06/10 07:07:42;;;;;;;25.80;23.70;;;;;;;;;;5058238;28;21080;-80
2021/06/10 07:10:09;;;;;;;27.33;24.40;;;;;;;;;;5061471;28;20456;-82
2021/06/10 07:12:37;;;;;;;25.50;23.30;;;;;;;;;;5067698;28;20481;-79
2021/06/10 07:15:04;;;;;;;26.33;23.87;;;;;;;;;;5069651;28;20453;-80
2021/06/10 07:17:31;;;;;;;25.10;22.90;;;;;;;;;;5063921;28;20454;-81
2021/06/10 07:20:00;;;;;;;27.67;25.17;;;;;;;;;;5054378;28;20455;-79
2021/06/10 07:22:26;;;;;;;24.40;22.20;;;;;;;;;;5055329;28;20476;-78
2021/06/10 07:24:53;;;;;;;26.67;24.27;;;;;;;;;;5055332;28;20466;-81
2021/06/10 07:27:20;;;;;;;26.57;24.23;;;;;;;;;;5053207;28;20444;-77
2021/06/10 07:29:48;;;;;;;28.60;26.00;;;;;;;;;;5053664;28;20454;-78
2021/06/10 07:32:15;;;;;;;26.70;24.30;;;;;;;;;;5059960;28;20882;-77
2021/06/10 07:34:41;;;;;;;28.67;26.03;;;;;;;;;;5058971;28;20515;-81
2021/06/10 07:37:08;;;;;;;26.63;24.40;;;;;;;;;;5054649;28;20449;-78
2021/06/10 07:39:35;;;;;;;27.87;25.37;;;;;;;;;;5057336;28;20492;-80
2021/06/10 07:42:02;;;;;;;27.63;25.03;;;;;;;;;;5052969;28;21034;-81
2021/06/10 07:44:29;;;;;;;27.00;24.40;;;;;;;;;;5049289;28;21010;-80
2021/06/10 07:46:58;;;;;;;27.13;24.63;;;;;;;;;;5058427;28;20539;-79
2021/06/10 07:49:25;;;;;;;28.50;25.90;;;;;;;;;;5058424;28;20449;-81
2021/06/10 07:51:51;;;;;;;28.60;26.13;;;;;;;;;;5058607;28;20459;-79
2021/06/10 07:54:18;;;;;;;25.67;23.50;;;;;;;;;;5061460;28;20445;-79
2021/06/10 07:56:45;;;;;;;25.37;23.17;;;;;;;;;;5053580;28;20461;-82
2021/06/10 07:59:12;;;;;;;25.93;23.80;;;;;;;;;;5057894;28;20453;-79
2021/06/10 08:01:39;;;;;;;26.40;24.00;;;;;;;;;;5053944;28;20544;-79
2021/06/10 08:04:07;;;;;;;25.60;23.20;;;;;;;;;;5052508;28;20558;-78
2021/06/10 08:06:34;;;;;;;26.20;23.80;;;;;;;;;;5054130;28;20477;-79
2021/06/10 08:09:02;;;;;;;25.70;23.50;;;;;;;;;;5061493;28;20477;-79
2021/06/10 08:11:28;;;;;;;23.07;21.17;;;;;;;;;;5056828;28;20519;-81
2021/06/10 08:13:55;;;;;;;26.10;23.90;;;;;;;;;;5059413;28;20460;-77
2021/06/10 08:16:22;;;;;;;23.53;21.40;;;;;;;;;;5070521;28;20466;-78
2021/06/10 08:18:49;;;;;;;25.07;23.07;;;;;;;;;;5058729;28;20914;-79
2021/06/10 08:21:17;;;;;;;23.43;21.33;;;;;;;;;;5066705;28;20897;-79
2021/06/10 08:23:43;;;;;;;23.03;20.70;;;;;;;;;;5061385;28;20465;-80
2021/06/10 08:26:10;;;;;;;23.57;21.70;;;;;;;;;;5059438;28;20484;-77
2021/06/10 08:28:37;;;;;;;21.33;19.50;;;;;;;;;;5053048;28;20531;-77
2021/06/10 08:31:03;;;;;;;22.80;20.80;;;;;;;;;;5054564;28;20874;-76
2021/06/10 08:33:32;;;;;;;23.17;21.17;;;;;;;;;;5057814;28;20468;-77
2021/06/10 08:35:59;;;;;;;22.83;20.90;;;;;;;;;;5054026;28;20624;-75
2021/06/10 08:38:37;;;;;;;21.60;19.70;;;;;;;;;;5053580;28;20441;-75
2021/06/10 08:41:25;;;;;;;20.53;18.73;;;;;;;;;;5054471;28;20419;-75
2021/06/10 08:44:18;;;;;;;21.17;19.47;;;;;;;;;;5062853;28;20530;-75
2021/06/10 08:47:04;;;;;;;20.57;18.77;;;;;;;;;;5034068;28;20443;-75
2021/06/10 08:56:44;;;;;;;15.97;14.57;;;;;;;;;;5052377;28;20630;-76
2021/06/10 08:59:11;;;;;;;16.00;14.80;;;;;;;;;;5040756;28;20434;-77
2021/06/10 09:01:37;;;;;;;15.13;13.97;;;;;;;;;;5067119;28;20466;-77
2021/06/10 09:04:04;;;;;;;12.30;11.30;;;;;;;;;;5053392;28;20466;-76
2021/06/10 09:06:45;;;;;;;10.97;10.17;;;;;;;;;;5055803;28;20449;-75
2021/06/10 09:09:12;;;;;;;13.30;12.00;;;;;;;;;;5054563;28;20444;-75
2021/06/10 09:11:39;;;;;;;13.67;12.57;;;;;;;;;;5053967;28;20448;-75
2021/06/10 09:14:09;;;;;;;15.33;14.03;;;;;;;;;;5040701;28;20705;-74
2021/06/10 09:16:36;;;;;;;14.83;13.53;;;;;;;;;;5052950;28;20560;-75
2021/06/10 09:19:07;;;;;;;12.47;11.47;;;;;;;;;;5053264;28;20468;-75
2021/06/10 09:21:36;;;;;;;12.07;11.13;;;;;;;;;;5053751;28;20471;-76
2021/06/10 09:24:16;;;;;;;14.13;12.97;;;;;;;;;;5055268;28;21087;-76
2021/06/10 09:26:43;;;;;;;15.97;14.43;;;;;;;;;;5057991;28;20449;-78
2021/06/10 09:29:11;;;;;;;13.87;12.80;;;;;;;;;;5040973;28;20462;-77
2021/06/10 09:31:39;;;;;;;12.60;11.70;;;;;;;;;;5054192;28;20548;-76
2021/06/10 09:34:09;;;;;;;15.50;14.30;;;;;;;;;;5052469;28;20814;-76
2021/06/10 09:36:42;;;;;;;15.50;14.30;;;;;;;;;;5063243;28;20449;-76
2021/06/10 09:39:10;;;;;;;13.20;12.20;;;;;;;;;;5053928;28;20473;-76
2021/06/10 09:41:52;;;;;;;10.20;9.43;;;;;;;;;;5065194;28;20456;-76
2021/06/10 09:44:36;;;;;;;13.87;12.77;;;;;;;;;;5061456;28;20499;-76
2021/06/10 09:47:03;;;;;;;11.93;11.03;;;;;;;;;;5052371;28;20466;-80
2021/06/10 09:49:30;;;;;;;11.43;10.47;;;;;;;;;;5060802;28;20500;-77
2021/06/10 09:51:57;;;;;;;11.73;10.83;;;;;;;;;;5055201;28;20536;-79
2021/06/10 09:54:38;;;;;;;12.73;11.80;;;;;;;;;;5051647;28;20510;-76
2021/06/10 09:57:05;;;;;;;10.23;9.53;;;;;;;;;;5039770;28;20446;-79
2021/06/10 09:59:53;;;;;;;10.23;9.53;;;;;;;;;;5051195;28;20460;-76
2021/06/10 10:02:21;;;;;;;11.47;10.67;;;;;;;;;;5046837;28;20468;-76
2021/06/10 10:04:57;;;;;;;10.77;9.97;;;;;;;;;;5049716;28;20480;-75
2021/06/10 10:07:25;;;;;;;11.07;10.20;;;;;;;;;;5052595;28;20976;-75
2021/06/10 10:09:52;;;;;;;10.57;9.87;;;;;;;;;;5055387;28;20529;-75
2021/06/10 10:12:19;;;;;;;9.00;8.40;;;;;;;;;;5054748;28;20471;-75
2021/06/10 10:14:46;;;;;;;9.70;9.00;;;;;;;;;;5057568;28;20920;-74
2021/06/10 10:17:14;;;;;;;10.60;9.80;;;;;;;;;;5054519;28;20801;-78
2021/06/10 10:19:41;;;;;;;9.60;8.90;;;;;;;;;;5054032;28;20542;-75
2021/06/10 10:22:10;;;;;;;9.83;9.13;;;;;;;;;;5052519;28;20459;-75
2021/06/10 10:24:38;;;;;;;9.07;8.37;;;;;;;;;;5057666;28;20471;-79
2021/06/10 10:27:05;;;;;;;8.67;7.87;;;;;;;;;;5054993;28;20456;-76
2021/06/10 10:29:31;;;;;;;8.90;8.10;;;;;;;;;;5049792;28;20454;-77
2021/06/10 10:31:58;;;;;;;8.57;7.97;;;;;;;;;;5055801;28;20463;-78
2021/06/10 10:34:28;;;;;;;8.80;8.00;;;;;;;;;;5053791;28;20517;-76
2021/06/10 10:36:55;;;;;;;6.87;6.40;;;;;;;;;;5051892;28;20472;-75
2021/06/10 10:39:29;;;;;;;7.03;6.53;;;;;;;;;;5053316;28;20898;-80
2021/06/10 10:41:59;;;;;;;7.47;6.77;;;;;;;;;;5060906;28;20948;-76
2021/06/10 10:44:26;;;;;;;7.30;6.80;;;;;;;;;;5058009;28;20465;-77
2021/06/10 10:47:01;;;;;;;6.27;5.87;;;;;;;;;;5069345;28;20530;-87
2021/06/10 10:49:30;;;;;;;6.57;6.17;;;;;;;;;;5069805;28;20458;-75
2021/06/10 10:52:26;;;;;;;6.27;5.87;;;;;;;;;;5055527;28;20453;-77
2021/06/10 10:54:53;;;;;;;6.73;6.10;;;;;;;;;;5055023;28;20472;-81
2021/06/10 10:57:40;;;;;;;6.90;6.40;;;;;;;;;;5054278;28;20476;-81
2021/06/10 11:00:07;;;;;;;7.67;7.17;;;;;;;;;;5060556;28;20896;-80
2021/06/10 11:02:36;;;;;;;7.50;7.00;;;;;;;;;;5057436;28;20439;-80
2021/06/10 11:05:07;;;;;;;7.30;6.80;;;;;;;;;;5053522;28;20445;-83
2021/06/10 11:07:53;;;;;;;6.73;6.23;;;;;;;;;;5056481;28;20514;-77
2021/06/10 11:10:39;;;;;;;6.10;5.70;;;;;;;;;;5053719;28;21007;-77
2021/06/10 11:13:15;;;;;;;6.47;5.97;;;;;;;;;;5053225;28;20458;-78
2021/06/10 11:15:48;;;;;;;6.90;6.30;;;;;;;;;;5052789;28;20450;-80
2021/06/10 11:18:15;;;;;;;6.30;5.70;;;;;;;;;;5062346;28;20509;-80
2021/06/10 11:20:43;;;;;;;6.27;5.87;;;;;;;;;;5056427;28;20460;-77
2021/06/10 11:23:10;;;;;;;6.17;5.77;;;;;;;;;;5054768;28;20563;-79
2021/06/10 11:25:41;;;;;;;6.10;5.70;;;;;;;;;;5058138;28;20470;-80
2021/06/10 11:28:09;;;;;;;6.80;6.10;;;;;;;;;;5053346;28;20510;-76
2021/06/10 11:30:36;;;;;;;6.97;6.57;;;;;;;;;;5060976;28;20518;-89
2021/06/10 11:33:05;;;;;;;6.63;6.23;;;;;;;;;;5062141;28;20442;-81
2021/06/10 11:35:35;;;;;;;6.80;6.30;;;;;;;;;;5048271;28;20883;-80
2021/06/10 11:38:04;;;;;;;6.27;5.77;;;;;;;;;;5053565;28;20450;-79
2021/06/10 11:40:33;;;;;;;5.73;5.43;;;;;;;;;;5060900;28;20476;-76
2021/06/10 11:43:04;;;;;;;6.27;5.87;;;;;;;;;;5050664;28;20515;-76
2021/06/10 11:45:31;;;;;;;6.33;5.93;;;;;;;;;;5061078;28;20458;-74
2021/06/10 11:47:57;;;;;;;7.17;6.57;;;;;;;;;;5055679;28;20472;-80
2021/06/10 11:50:25;;;;;;;6.93;6.43;;;;;;;;;;5055404;28;20957;-78
2021/06/10 11:52:55;;;;;;;7.10;6.63;;;;;;;;;;5059616;28;20547;-79
2021/06/10 11:55:24;;;;;;;6.83;6.43;;;;;;;;;;5065138;28;20444;-79
2021/06/10 11:57:55;;;;;;;7.43;6.87;;;;;;;;;;5063497;28;20478;-79
2021/06/10 12:00:26;;;;;;;7.43;6.93;;;;;;;;;;5079554;28;20981;-78
2021/06/10 12:02:55;;;;;;;7.00;6.50;;;;;;;;;;5060782;28;21044;-77
2021/06/10 12:05:22;;;;;;;7.20;6.80;;;;;;;;;;5060025;28;20469;-78
2021/06/10 12:07:49;;;;;;;8.70;7.60;;;;;;;;;;5058278;28;20489;-77
2021/06/10 12:10:18;;;;;;;8.03;7.43;;;;;;;;;;5065172;28;20891;-79
2021/06/10 12:12:47;;;;;;;7.87;7.30;;;;;;;;;;5067631;28;21077;-80
2021/06/10 12:15:35;;;;;;;8.20;7.63;;;;;;;;;;5057920;28;20849;-78
2021/06/10 12:18:02;;;;;;;8.37;7.77;;;;;;;;;;5044412;28;20457;-80
2021/06/10 12:20:30;;;;;;;7.83;7.23;;;;;;;;;;5052543;28;20449;-78
2021/06/10 12:22:57;;;;;;;8.80;8.20;;;;;;;;;;5056709;28;20452;-82
2021/06/10 12:25:25;;;;;;;8.50;7.90;;;;;;;;;;5061768;28;20455;-78
2021/06/10 12:27:54;;;;;;;7.83;7.33;;;;;;;;;;5067324;28;20806;-82
2021/06/10 12:30:21;;;;;;;9.30;8.70;;;;;;;;;;5059680;28;20452;-76
2021/06/10 12:32:48;;;;;;;8.47;7.87;;;;;;;;;;5061314;28;20453;-78
2021/06/10 12:35:15;;;;;;;8.50;7.90;;;;;;;;;;5059013;28;20552;-77
2021/06/10 12:37:42;;;;;;;7.50;7.07;;;;;;;;;;5060566;28;20790;-78
2021/06/10 12:40:09;;;;;;;7.47;6.97;;;;;;;;;;5056527;28;20900;-79
2021/06/10 12:42:36;;;;;;;9.40;8.53;;;;;;;;;;5067023;28;21082;-78
2021/06/10 12:45:04;;;;;;;7.87;7.37;;;;;;;;;;5070862;28;20483;-78
2021/06/10 12:47:31;;;;;;;8.10;7.60;;;;;;;;;;5070379;28;20445;-78
2021/06/10 12:49:58;;;;;;;9.40;8.70;;;;;;;;;;5056053;28;20853;-79
2021/06/10 12:52:25;;;;;;;8.70;8.13;;;;;;;;;;5060019;28;20560;-77
2021/06/10 12:54:58;;;;;;;9.50;8.80;;;;;;;;;;5063289;28;20441;-81
2021/06/10 12:57:25;;;;;;;8.00;7.50;;;;;;;;;;5062191;28;20442;-79
2021/06/10 12:59:53;;;;;;;8.50;7.90;;;;;;;;;;5054531;28;20469;-81
2021/06/10 13:02:21;;;;;;;8.40;7.80;;;;;;;;;;5063578;28;20481;-77
2021/06/10 13:04:49;;;;;;;7.77;7.17;;;;;;;;;;5065379;28;20466;-79
2021/06/10 13:07:29;;;;;;;7.40;6.90;;;;;;;;;;5062804;28;20449;-79
2021/06/10 13:09:57;;;;;;;7.50;7.00;;;;;;;;;;5058818;28;20854;-77
2021/06/10 13:12:24;;;;;;;8.97;8.17;;;;;;;;;;5055853;28;20552;-78
2021/06/10 13:15:06;;;;;;;8.20;7.70;;;;;;;;;;5062199;28;20452;-77
2021/06/10 13:18:00;;;;;;;7.57;7.10;;;;;;;;;;5058390;28;20452;-78
2021/06/10 13:20:47;;;;;;;7.23;6.73;;;;;;;;;;5031688;28;20449;-77
2021/06/10 13:23:15;;;;;;;7.67;7.17;;;;;;;;;;5055006;28;21008;-77
2021/06/10 13:25:42;;;;;;;7.50;7.00;;;;;;;;;;5060447;28;20448;-82
2021/06/10 13:28:09;;;;;;;7.10;6.60;;;;;;;;;;5057028;28;20536;-77
2021/06/10 13:30:36;;;;;;;6.80;6.40;;;;;;;;;;5054173;28;20528;-77
2021/06/10 13:33:02;;;;;;;7.37;6.87;;;;;;;;;;5061269;28;20450;-77
2021/06/10 13:35:33;;;;;;;7.27;6.80;;;;;;;;;;5075744;28;20449;-81
2021/06/10 13:38:01;;;;;;;7.13;6.63;;;;;;;;;;5070274;28;20477;-79
2021/06/10 13:40:27;;;;;;;6.97;6.47;;;;;;;;;;5062419;28;20935;-83
2021/06/10 13:42:54;;;;;;;8.40;7.80;;;;;;;;;;5070937;28;20544;-81
2021/06/10 13:45:22;;;;;;;7.40;6.80;;;;;;;;;;5052851;28;20453;-81
2021/06/10 13:47:49;;;;;;;6.60;6.20;;;;;;;;;;5059257;28;20449;-77
2021/06/10 13:50:16;;;;;;;6.37;5.97;;;;;;;;;;5067030;28;20433;-78
2021/06/10 13:52:42;;;;;;;6.23;5.83;;;;;;;;;;5054274;28;20992;-77
2021/06/10 13:55:10;;;;;;;6.70;6.20;;;;;;;;;;5056324;28;20488;-77
2021/06/10 13:57:37;;;;;;;7.00;6.50;;;;;;;;;;5056521;28;20437;-78
2021/06/10 14:00:04;;;;;;;7.33;6.83;;;;;;;;;;5060231;28;20969;-78
2021/06/10 14:02:31;;;;;;;7.60;7.10;;;;;;;;;;5056546;28;20450;-78
2021/06/10 14:04:58;;;;;;;7.00;6.50;;;;;;;;;;5062873;28;20574;-78
2021/06/10 14:07:25;;;;;;;7.50;7.00;;;;;;;;;;5065845;28;20452;-78
2021/06/10 14:09:51;;;;;;;7.30;6.80;;;;;;;;;;5063309;28;20450;-78
2021/06/10 14:12:19;;;;;;;6.60;6.20;;;;;;;;;;5061374;28;20595;-77
2021/06/10 14:14:46;;;;;;;7.37;6.87;;;;;;;;;;5061349;28;20438;-78
2021/06/10 14:17:13;;;;;;;8.07;7.57;;;;;;;;;;5065033;28;20512;-79
2021/06/10 14:19:39;;;;;;;7.60;7.10;;;;;;;;;;5058144;28;20897;-79
2021/06/10 14:22:09;;;;;;;7.33;6.90;;;;;;;;;;5062866;28;20442;-77
2021/06/10 14:24:35;;;;;;;7.30;6.80;;;;;;;;;;5066176;28;20461;-79
2021/06/10 14:27:02;;;;;;;7.30;6.80;;;;;;;;;;5068564;28;20700;-77
2021/06/10 14:29:42;;;;;;;8.20;7.60;;;;;;;;;;5067871;28;20494;-79
2021/06/10 14:32:19;;;;;;;7.53;7.00;;;;;;;;;;5058858;28;20453;-78
2021/06/10 14:34:46;;;;;;;8.33;7.83;;;;;;;;;;5059122;28;20441;-78
2021/06/10 14:37:13;;;;;;;8.03;7.30;;;;;;;;;;5059137;28;20449;-78
2021/06/10 14:39:40;;;;;;;7.93;7.37;;;;;;;;;;5048595;28;20828;-78